createdAt,value
2018-11-06T00:00:47.585Z,0.00
2018-11-06T00:01:47.564Z,0.00
2018-11-06T00:02:47.484Z,0.00
2018-11-06T00:03:47.430Z,0.00
2018-11-06T00:04:47.380Z,0.00
2018-11-06T00:05:47.333Z,0.00
2018-11-06T00:06:47.299Z,0.00
2018-11-06T00:07:47.226Z,0.00
2018-11-06T00:08:47.177Z,0.00
2018-11-06T00:09:47.126Z,0.00
2018-11-06T00:10:47.072Z,0.00
2018-11-06T00:11:47.047Z,0.00
2018-11-06T00:12:46.968Z,0.00
2018-11-06T00:13:46.915Z,0.00
2018-11-06T00:14:46.863Z,0.00
2018-11-06T00:15:46.817Z,0.00
2018-11-06T00:16:46.783Z,0.00
2018-11-06T00:17:46.711Z,0.00
2018-11-06T00:18:46.656Z,0.00
2018-11-06T00:19:46.607Z,0.00
2018-11-06T00:20:46.557Z,0.00
2018-11-06T00:21:46.527Z,0.00
2018-11-06T00:22:46.449Z,0.00
2018-11-06T00:23:46.400Z,0.00
2018-11-06T00:24:46.350Z,0.00
2018-11-06T00:25:46.296Z,0.00
2018-11-06T00:26:46.270Z,0.00
2018-11-06T00:27:46.193Z,0.00
2018-11-06T00:28:46.140Z,0.00
2018-11-06T00:29:46.090Z,0.00
2018-11-06T00:30:46.040Z,0.00
2018-11-06T00:31:46.008Z,0.00
2018-11-06T00:32:45.934Z,0.00
2018-11-06T00:33:45.887Z,0.00
2018-11-06T00:34:45.830Z,0.00
2018-11-06T00:35:45.777Z,0.00
2018-11-06T00:36:45.750Z,0.00
2018-11-06T00:37:45.677Z,0.00
2018-11-06T00:38:45.627Z,0.00
2018-11-06T00:39:45.573Z,0.00
2018-11-06T00:40:45.518Z,0.00
2018-11-06T00:41:45.490Z,0.00
2018-11-06T00:42:45.415Z,0.00
2018-11-06T00:43:45.363Z,0.00
2018-11-06T00:44:45.311Z,0.00
2018-11-06T00:45:45.260Z,0.00
2018-11-06T00:46:45.232Z,0.00
2018-11-06T00:47:45.161Z,0.00
2018-11-06T00:48:45.108Z,0.00
2018-11-06T00:49:45.051Z,0.00
2018-11-06T00:50:52.929Z,0.00
2018-11-06T00:51:44.976Z,0.00
2018-11-06T00:52:44.898Z,0.00
2018-11-06T00:53:44.847Z,0.00
2018-11-06T00:54:44.796Z,0.00
2018-11-06T00:55:44.751Z,0.00
2018-11-06T00:56:44.731Z,0.00
2018-11-06T00:57:44.637Z,0.00
2018-11-06T00:58:44.588Z,0.00
2018-11-06T00:59:44.531Z,0.00
2018-11-06T01:00:44.483Z,0.00
2018-11-06T01:01:44.428Z,0.00
2018-11-06T01:02:44.401Z,0.00
2018-11-06T01:03:51.518Z,0.00
2018-11-06T01:04:44.278Z,0.00
2018-11-06T01:05:44.220Z,0.00
2018-11-06T01:06:44.169Z,0.00
2018-11-06T01:07:44.140Z,0.00
2018-11-06T01:08:44.069Z,0.00
2018-11-06T01:09:44.016Z,0.00
2018-11-06T01:10:43.961Z,0.00
2018-11-06T01:11:43.910Z,0.00
2018-11-06T01:12:43.879Z,0.00
2018-11-06T01:13:43.808Z,0.00
2018-11-06T01:14:43.755Z,0.00
2018-11-06T01:15:43.703Z,0.00
2018-11-06T01:16:43.649Z,0.00
2018-11-06T01:17:43.618Z,0.00
2018-11-06T01:18:43.546Z,0.00
2018-11-06T01:19:43.495Z,0.00
2018-11-06T01:20:43.438Z,0.00
2018-11-06T01:21:43.386Z,0.00
2018-11-06T01:22:43.356Z,0.00
2018-11-06T01:23:43.285Z,0.00
2018-11-06T01:24:43.233Z,0.00
2018-11-06T01:25:43.180Z,0.00
2018-11-06T01:26:43.127Z,0.00
2018-11-06T01:27:43.101Z,0.00
2018-11-06T01:28:43.025Z,0.00
2018-11-06T01:29:42.972Z,0.00
2018-11-06T01:30:42.920Z,0.00
2018-11-06T01:31:42.867Z,0.00
2018-11-06T01:32:42.837Z,0.00
2018-11-06T01:33:42.762Z,0.00
2018-11-06T01:34:42.715Z,0.00
2018-11-06T01:35:42.657Z,0.00
2018-11-06T01:36:42.613Z,0.00
2018-11-06T01:37:42.574Z,0.00
2018-11-06T01:38:42.510Z,0.00
2018-11-06T01:39:42.450Z,0.00
2018-11-06T01:40:42.395Z,0.00
2018-11-06T01:41:42.341Z,0.00
2018-11-06T01:42:42.317Z,0.00
2018-11-06T01:43:42.258Z,0.00
2018-11-06T01:44:42.185Z,0.00
2018-11-06T01:45:42.133Z,0.00
2018-11-06T01:46:42.082Z,0.00
2018-11-06T01:47:42.054Z,0.00
2018-11-06T01:48:41.979Z,0.00
2018-11-06T01:49:41.925Z,0.00
2018-11-06T01:50:41.874Z,0.00
2018-11-06T01:51:41.821Z,0.00
2018-11-06T01:52:41.795Z,0.00
2018-11-06T01:53:41.716Z,0.00
2018-11-06T01:54:41.661Z,0.00
2018-11-06T01:55:41.613Z,0.00
2018-11-06T01:56:41.558Z,0.00
2018-11-06T01:57:41.526Z,0.00
2018-11-06T01:58:41.459Z,0.00
2018-11-06T01:59:41.402Z,0.00
2018-11-06T02:00:41.349Z,0.00
2018-11-06T02:01:41.305Z,0.00
2018-11-06T02:02:41.267Z,0.00
2018-11-06T02:03:41.190Z,0.00
2018-11-06T02:04:41.139Z,0.00
2018-11-06T02:05:41.092Z,0.00
2018-11-06T02:06:41.035Z,0.00
2018-11-06T02:07:41.007Z,0.00
2018-11-06T02:08:40.933Z,0.00
2018-11-06T02:09:40.876Z,0.00
2018-11-06T02:10:40.829Z,0.00
2018-11-06T02:11:40.775Z,0.00
2018-11-06T02:12:40.743Z,0.00
2018-11-06T02:13:40.667Z,0.00
2018-11-06T02:14:40.616Z,0.00
2018-11-06T02:15:40.563Z,0.00
2018-11-06T02:16:40.510Z,0.00
2018-11-06T02:17:40.489Z,0.00
2018-11-06T02:18:40.409Z,0.00
2018-11-06T02:19:40.354Z,0.00
2018-11-06T02:20:40.307Z,0.00
2018-11-06T02:21:40.250Z,0.00
2018-11-06T02:22:40.227Z,0.00
2018-11-06T02:23:40.149Z,0.00
2018-11-06T02:24:40.096Z,0.00
2018-11-06T02:25:40.054Z,0.00
2018-11-06T02:26:39.992Z,0.00
2018-11-06T02:27:39.962Z,0.00
2018-11-06T02:28:39.885Z,0.00
2018-11-06T02:29:39.834Z,0.00
2018-11-06T02:30:39.780Z,0.00
2018-11-06T02:31:39.734Z,0.00
2018-11-06T02:32:39.722Z,0.00
2018-11-06T02:33:39.622Z,0.00
2018-11-06T02:34:39.572Z,0.00
2018-11-06T02:35:39.520Z,0.00
2018-11-06T02:36:39.471Z,0.00
2018-11-06T02:37:39.413Z,0.00
2018-11-06T02:38:39.394Z,0.00
2018-11-06T02:39:39.314Z,0.00
2018-11-06T02:40:39.258Z,0.00
2018-11-06T02:41:39.212Z,0.00
2018-11-06T02:42:39.159Z,0.00
2018-11-06T02:43:39.128Z,0.00
2018-11-06T02:44:39.049Z,0.00
2018-11-06T02:45:38.997Z,0.00
2018-11-06T02:46:38.949Z,0.00
2018-11-06T02:47:38.895Z,0.00
2018-11-06T02:48:38.864Z,0.00
2018-11-06T02:49:38.785Z,0.00
2018-11-06T02:50:38.733Z,0.00
2018-11-06T02:51:38.682Z,0.00
2018-11-06T02:52:38.631Z,0.00
2018-11-06T02:53:38.599Z,0.00
2018-11-06T02:54:38.525Z,0.00
2018-11-06T02:55:38.498Z,0.00
2018-11-06T02:56:38.424Z,0.00
2018-11-06T02:57:38.370Z,0.00
2018-11-06T02:58:38.341Z,0.00
2018-11-06T02:59:38.263Z,0.00
2018-11-06T03:00:38.210Z,0.00
2018-11-06T03:01:38.156Z,0.00
2018-11-06T03:02:38.110Z,0.00
2018-11-06T03:03:38.089Z,0.00
2018-11-06T03:04:38.004Z,0.00
2018-11-06T03:05:37.946Z,0.00
2018-11-06T03:06:37.896Z,0.00
2018-11-06T03:07:37.845Z,0.00
2018-11-06T03:08:37.814Z,0.00
2018-11-06T03:09:37.743Z,0.00
2018-11-06T03:10:37.687Z,0.00
2018-11-06T03:11:37.633Z,0.00
2018-11-06T03:12:37.581Z,0.00
2018-11-06T03:13:37.550Z,0.00
2018-11-06T03:14:37.475Z,0.00
2018-11-06T03:15:37.423Z,0.00
2018-11-06T03:16:37.378Z,0.00
2018-11-06T03:17:37.321Z,0.00
2018-11-06T03:18:37.291Z,0.00
2018-11-06T03:19:37.213Z,0.00
2018-11-06T03:20:37.159Z,0.00
2018-11-06T03:21:37.108Z,0.00
2018-11-06T03:22:37.053Z,0.00
2018-11-06T03:23:37.033Z,0.00
2018-11-06T03:24:36.954Z,0.00
2018-11-06T03:25:36.901Z,0.00
2018-11-06T03:26:36.848Z,0.00
2018-11-06T03:27:36.796Z,0.00
2018-11-06T03:28:36.762Z,0.00
2018-11-06T03:29:36.687Z,0.00
2018-11-06T03:30:36.645Z,0.00
2018-11-06T03:31:36.587Z,0.00
2018-11-06T03:32:36.529Z,0.00
2018-11-06T03:33:36.503Z,0.00
2018-11-06T03:34:36.426Z,0.00
2018-11-06T03:35:36.373Z,0.00
2018-11-06T03:36:36.321Z,0.00
2018-11-06T03:37:36.265Z,0.00
2018-11-06T03:38:36.240Z,0.00
2018-11-06T03:39:36.170Z,0.00
2018-11-06T03:40:36.107Z,0.00
2018-11-06T03:41:36.061Z,0.00
2018-11-06T03:42:36.007Z,0.00
2018-11-06T03:43:35.978Z,0.00
2018-11-06T03:44:35.898Z,0.00
2018-11-06T03:45:35.846Z,0.00
2018-11-06T03:46:35.800Z,0.00
2018-11-06T03:47:35.759Z,0.00
2018-11-06T03:48:35.717Z,0.00
2018-11-06T03:49:35.636Z,0.00
2018-11-06T03:50:35.593Z,0.00
2018-11-06T03:51:35.532Z,0.00
2018-11-06T03:52:35.488Z,0.00
2018-11-06T03:53:35.448Z,0.00
2018-11-06T03:54:35.381Z,0.00
2018-11-06T03:55:43.002Z,0.00
2018-11-06T03:56:35.269Z,0.00
2018-11-06T03:57:35.216Z,0.00
2018-11-06T03:58:35.204Z,0.00
2018-11-06T03:59:35.110Z,0.00
2018-11-06T04:00:35.064Z,0.00
2018-11-06T04:01:35.004Z,0.00
2018-11-06T04:02:34.952Z,0.00
2018-11-06T04:03:34.902Z,0.00
2018-11-06T04:04:34.871Z,0.00
2018-11-06T04:05:34.796Z,0.00
2018-11-06T04:06:34.742Z,0.00
2018-11-06T04:07:34.689Z,0.00
2018-11-06T04:08:34.645Z,0.00
2018-11-06T04:09:34.608Z,0.00
2018-11-06T04:10:34.535Z,0.00
2018-11-06T04:11:34.484Z,0.00
2018-11-06T04:12:34.431Z,0.00
2018-11-06T04:13:34.374Z,0.00
2018-11-06T04:14:34.347Z,0.00
2018-11-06T04:15:34.273Z,0.00
2018-11-06T04:16:34.219Z,0.00
2018-11-06T04:17:34.169Z,0.00
2018-11-06T04:18:34.113Z,0.00
2018-11-06T04:19:34.088Z,0.00
2018-11-06T04:20:34.010Z,0.00
2018-11-06T04:21:33.958Z,0.00
2018-11-06T04:22:33.905Z,0.00
2018-11-06T04:23:33.848Z,0.00
2018-11-06T04:24:33.825Z,0.00
2018-11-06T04:25:33.748Z,0.00
2018-11-06T04:26:33.691Z,0.00
2018-11-06T04:27:33.640Z,0.00
2018-11-06T04:28:33.589Z,0.00
2018-11-06T04:29:33.561Z,0.00
2018-11-06T04:30:33.483Z,0.00
2018-11-06T04:31:33.433Z,0.00
2018-11-06T04:32:33.380Z,0.00
2018-11-06T04:33:33.326Z,0.00
2018-11-06T04:34:33.301Z,0.00
2018-11-06T04:35:33.226Z,0.00
2018-11-06T04:36:33.169Z,0.00
2018-11-06T04:37:33.116Z,0.00
2018-11-06T04:38:33.064Z,0.00
2018-11-06T04:39:33.035Z,0.00
2018-11-06T04:40:32.964Z,0.00
2018-11-06T04:41:32.905Z,0.00
2018-11-06T04:42:32.853Z,0.00
2018-11-06T04:43:32.800Z,0.00
2018-11-06T04:44:32.770Z,0.00
2018-11-06T04:45:32.692Z,0.00
2018-11-06T04:46:32.643Z,0.00
2018-11-06T04:47:32.589Z,0.00
2018-11-06T04:48:32.539Z,0.00
2018-11-06T04:49:32.505Z,0.00
2018-11-06T04:50:32.431Z,0.00
2018-11-06T04:51:32.378Z,0.00
2018-11-06T04:52:32.327Z,0.00
2018-11-06T04:53:32.277Z,0.00
2018-11-06T04:54:32.242Z,0.00
2018-11-06T04:55:32.166Z,0.00
2018-11-06T04:56:32.115Z,0.00
2018-11-06T04:57:32.060Z,0.00
2018-11-06T04:58:32.009Z,0.00
2018-11-06T04:59:31.979Z,0.00
2018-11-06T05:00:31.904Z,0.00
2018-11-06T05:01:31.852Z,0.00
2018-11-06T05:02:31.798Z,0.00
2018-11-06T05:03:31.745Z,0.00
2018-11-06T05:04:31.719Z,0.00
2018-11-06T05:05:31.643Z,0.00
2018-11-06T05:06:31.590Z,0.00
2018-11-06T05:07:31.540Z,0.00
2018-11-06T05:08:31.482Z,0.00
2018-11-06T05:09:31.452Z,0.00
2018-11-06T05:10:31.377Z,0.00
2018-11-06T05:11:31.327Z,0.00
2018-11-06T05:12:31.275Z,0.00
2018-11-06T05:13:31.220Z,0.00
2018-11-06T05:14:31.192Z,0.00
2018-11-06T05:15:31.118Z,0.00
2018-11-06T05:16:31.064Z,0.00
2018-11-06T05:17:31.013Z,0.00
2018-11-06T05:18:30.953Z,0.00
2018-11-06T05:19:30.927Z,0.00
2018-11-06T05:20:30.855Z,0.00
2018-11-06T05:21:30.802Z,0.00
2018-11-06T05:22:30.748Z,0.00
2018-11-06T05:23:30.696Z,0.00
2018-11-06T05:24:30.667Z,0.00
2018-11-06T05:25:30.629Z,0.00
2018-11-06T05:26:30.536Z,0.00
2018-11-06T05:27:30.618Z,0.00
2018-11-06T05:28:30.431Z,0.00
2018-11-06T05:29:30.378Z,0.00
2018-11-06T05:30:30.349Z,0.00
2018-11-06T05:31:30.275Z,0.00
2018-11-06T05:32:30.222Z,0.00
2018-11-06T05:33:30.167Z,0.00
2018-11-06T05:34:30.112Z,0.00
2018-11-06T05:35:30.087Z,0.00
2018-11-06T05:36:30.011Z,0.00
2018-11-06T05:37:29.954Z,0.00
2018-11-06T05:38:29.904Z,0.00
2018-11-06T05:39:29.860Z,0.00
2018-11-06T05:40:29.820Z,0.00
2018-11-06T05:41:29.745Z,0.00
2018-11-06T05:42:29.692Z,0.00
2018-11-06T05:43:29.636Z,0.00
2018-11-06T05:44:29.586Z,0.00
2018-11-06T05:45:29.645Z,0.00
2018-11-06T05:46:29.477Z,0.00
2018-11-06T05:47:29.428Z,0.00
2018-11-06T05:48:29.383Z,0.00
2018-11-06T05:49:29.323Z,0.00
2018-11-06T05:50:29.294Z,0.00
2018-11-06T05:51:29.219Z,0.00
2018-11-06T05:52:29.164Z,0.00
2018-11-06T05:53:29.111Z,0.00
2018-11-06T05:54:29.059Z,0.00
2018-11-06T05:55:29.026Z,0.00
2018-11-06T05:56:28.953Z,0.00
2018-11-06T05:57:28.906Z,4.00
2018-11-06T05:58:28.847Z,0.00
2018-11-06T05:59:28.793Z,0.00
2018-11-06T06:00:28.809Z,4.00
2018-11-06T06:01:28.690Z,0.00
2018-11-06T06:02:28.644Z,4.00
2018-11-06T06:03:28.585Z,0.00
2018-11-06T06:04:28.530Z,4.00
2018-11-06T06:05:28.498Z,4.00
2018-11-06T06:06:28.422Z,4.00
2018-11-06T06:07:28.371Z,4.00
2018-11-06T06:08:28.320Z,8.00
2018-11-06T06:09:28.262Z,8.00
2018-11-06T06:10:28.236Z,12.00
2018-11-06T06:11:28.162Z,12.00
2018-11-06T06:12:28.108Z,16.00
2018-11-06T06:13:28.051Z,16.00
2018-11-06T06:14:28.030Z,20.00
2018-11-06T06:15:27.978Z,20.00
2018-11-06T06:16:27.893Z,28.00
2018-11-06T06:17:27.841Z,28.00
2018-11-06T06:18:27.793Z,32.00
2018-11-06T06:19:27.750Z,40.00
2018-11-06T06:20:27.684Z,40.00
2018-11-06T06:21:27.653Z,48.00
2018-11-06T06:22:27.615Z,52.00
2018-11-06T06:23:27.524Z,56.00
2018-11-06T06:24:27.471Z,64.00
2018-11-06T06:25:27.418Z,68.00
2018-11-06T06:26:27.391Z,76.00
2018-11-06T06:27:27.312Z,84.00
2018-11-06T06:28:27.432Z,92.00
2018-11-06T06:29:27.207Z,100.00
2018-11-06T06:30:27.153Z,104.00
2018-11-06T06:31:27.128Z,108.00
2018-11-06T06:32:27.049Z,112.00
2018-11-06T06:33:27.021Z,120.00
2018-11-06T06:34:26.953Z,128.00
2018-11-06T06:35:26.890Z,136.00
2018-11-06T06:36:26.865Z,144.00
2018-11-06T06:37:26.786Z,152.00
2018-11-06T06:38:26.777Z,160.00
2018-11-06T06:39:26.675Z,168.00
2018-11-06T06:40:26.624Z,176.00
2018-11-06T06:41:26.591Z,188.00
2018-11-06T06:42:26.522Z,192.00
2018-11-06T06:43:26.469Z,200.00
2018-11-06T06:44:26.416Z,208.00
2018-11-06T06:45:26.364Z,220.00
2018-11-06T06:46:26.418Z,228.00
2018-11-06T06:47:26.255Z,240.00
2018-11-06T06:48:26.198Z,256.00
2018-11-06T06:49:26.144Z,264.00
2018-11-06T06:50:26.101Z,280.00
2018-11-06T06:51:26.070Z,284.00
2018-11-06T06:52:25.992Z,296.00
2018-11-06T06:53:25.936Z,312.00
2018-11-06T06:54:26.063Z,332.00
2018-11-06T06:55:26.462Z,356.00
2018-11-06T06:56:27.056Z,368.00
2018-11-06T06:57:25.721Z,384.00
2018-11-06T06:58:25.669Z,396.00
2018-11-06T06:59:25.621Z,416.00
2018-11-06T07:00:25.573Z,436.00
2018-11-06T07:01:25.545Z,456.00
2018-11-06T07:02:25.488Z,476.00
2018-11-06T07:03:25.407Z,484.00
2018-11-06T07:04:25.362Z,492.00
2018-11-06T07:05:25.300Z,508.00
2018-11-06T07:06:25.272Z,524.00
2018-11-06T07:07:25.195Z,548.00
2018-11-06T07:08:25.144Z,568.00
2018-11-06T07:09:25.086Z,588.00
2018-11-06T07:10:25.055Z,608.00
2018-11-06T07:11:25.011Z,628.00
2018-11-06T07:12:24.932Z,640.00
2018-11-06T07:13:24.883Z,652.00
2018-11-06T07:14:24.825Z,664.00
2018-11-06T07:15:24.777Z,672.00
2018-11-06T07:16:24.767Z,680.00
2018-11-06T07:17:24.672Z,684.00
2018-11-06T07:18:24.665Z,692.00
2018-11-06T07:19:24.567Z,700.00
2018-11-06T07:20:24.506Z,712.00
2018-11-06T07:21:24.482Z,736.00
2018-11-06T07:22:24.418Z,752.00
2018-11-06T07:23:24.354Z,772.00
2018-11-06T07:24:24.300Z,792.00
2018-11-06T07:25:24.251Z,808.00
2018-11-06T07:26:24.245Z,832.00
2018-11-06T07:27:24.153Z,852.00
2018-11-06T07:28:24.089Z,868.00
2018-11-06T07:29:24.033Z,884.00
2018-11-06T07:30:23.994Z,896.00
2018-11-06T07:31:23.955Z,908.00
2018-11-06T07:32:23.878Z,928.00
2018-11-06T07:33:23.825Z,944.00
2018-11-06T07:34:23.785Z,968.00
2018-11-06T07:35:23.773Z,984.00
2018-11-06T07:36:23.697Z,1008.00
2018-11-06T07:37:23.612Z,1020.00
2018-11-06T07:38:23.563Z,1040.00
2018-11-06T07:39:23.509Z,1060.00
2018-11-06T07:40:23.469Z,1068.00
2018-11-06T07:41:23.431Z,1076.00
2018-11-06T07:42:23.356Z,1072.00
2018-11-06T07:43:23.301Z,1056.00
2018-11-06T07:44:23.252Z,1064.00
2018-11-06T07:45:23.195Z,1080.00
2018-11-06T07:46:23.178Z,1064.00
2018-11-06T07:47:23.090Z,1060.00
2018-11-06T07:48:23.038Z,1112.00
2018-11-06T07:49:22.985Z,1116.00
2018-11-06T07:50:22.985Z,1116.00
2018-11-06T07:51:22.887Z,1140.00
2018-11-06T07:52:22.854Z,1196.00
2018-11-06T07:53:22.786Z,1280.00
2018-11-06T07:54:22.740Z,1328.00
2018-11-06T07:55:22.670Z,1256.00
2018-11-06T07:56:22.702Z,1200.00
2018-11-06T07:57:22.592Z,1200.00
2018-11-06T07:58:22.517Z,1352.00
2018-11-06T07:59:22.465Z,1392.00
2018-11-06T08:00:22.416Z,1392.00
2018-11-06T08:01:22.366Z,1440.00
2018-11-06T08:02:22.333Z,1476.00
2018-11-06T08:03:22.259Z,1524.00
2018-11-06T08:04:22.264Z,1568.00
2018-11-06T08:05:22.160Z,1584.00
2018-11-06T08:06:22.122Z,1596.00
2018-11-06T08:07:22.078Z,1632.00
2018-11-06T08:08:22.001Z,1620.00
2018-11-06T08:09:21.974Z,1580.00
2018-11-06T08:10:21.894Z,1520.00
2018-11-06T08:11:21.841Z,1528.00
2018-11-06T08:12:21.815Z,1536.00
2018-11-06T08:13:21.739Z,1540.00
2018-11-06T08:14:21.692Z,1520.00
2018-11-06T08:15:21.639Z,1520.00
2018-11-06T08:16:21.585Z,1508.00
2018-11-06T08:17:21.560Z,1520.00
2018-11-06T08:18:21.484Z,1512.00
2018-11-06T08:19:21.443Z,1476.00
2018-11-06T08:20:21.391Z,1496.00
2018-11-06T08:21:21.329Z,1508.00
2018-11-06T08:22:21.304Z,1548.00
2018-11-06T08:23:21.222Z,1588.00
2018-11-06T08:24:21.181Z,1620.00
2018-11-06T08:25:21.123Z,1640.00
2018-11-06T08:26:21.075Z,1656.00
2018-11-06T08:27:21.046Z,1628.00
2018-11-06T08:28:20.974Z,1624.00
2018-11-06T08:29:20.921Z,1696.00
2018-11-06T08:30:20.866Z,1820.00
2018-11-06T08:31:21.302Z,1932.00
2018-11-06T08:32:21.033Z,2004.00
2018-11-06T08:33:20.717Z,2072.00
2018-11-06T08:34:20.664Z,2128.00
2018-11-06T08:35:20.608Z,2192.00
2018-11-06T08:36:20.563Z,2264.00
2018-11-06T08:37:20.535Z,2364.00
2018-11-06T08:38:20.459Z,2460.00
2018-11-06T08:39:20.409Z,2536.00
2018-11-06T08:40:20.394Z,2596.00
2018-11-06T08:41:20.303Z,2616.00
2018-11-06T08:42:20.307Z,2632.00
2018-11-06T08:43:20.211Z,2644.00
2018-11-06T08:44:20.161Z,2640.00
2018-11-06T08:45:20.104Z,2632.00
2018-11-06T08:46:20.060Z,2648.00
2018-11-06T08:47:20.029Z,2688.00
2018-11-06T08:48:20.076Z,2732.00
2018-11-06T08:49:19.900Z,2776.00
2018-11-06T08:50:19.858Z,2792.00
2018-11-06T08:51:19.798Z,2796.00
2018-11-06T08:52:19.776Z,2752.00
2018-11-06T08:53:19.699Z,2676.00
2018-11-06T08:54:19.661Z,2592.00
2018-11-06T08:55:19.598Z,2524.00
2018-11-06T08:56:19.548Z,2468.00
2018-11-06T08:57:19.527Z,2444.00
2018-11-06T08:58:19.452Z,2424.00
2018-11-06T08:59:19.402Z,2424.00
2018-11-06T09:00:19.348Z,2420.00
2018-11-06T09:01:19.301Z,2440.00
2018-11-06T09:02:19.296Z,2452.00
2018-11-06T09:03:19.195Z,2460.00
2018-11-06T09:04:19.154Z,2452.00
2018-11-06T09:05:19.100Z,2468.00
2018-11-06T09:06:19.046Z,2512.00
2018-11-06T09:07:19.053Z,2528.00
2018-11-06T09:08:18.972Z,2536.00
2018-11-06T09:09:18.910Z,2516.00
2018-11-06T09:10:18.850Z,2480.00
2018-11-06T09:11:18.806Z,2452.00
2018-11-06T09:12:18.752Z,2408.00
2018-11-06T09:13:18.722Z,2280.00
2018-11-06T09:14:18.648Z,2156.00
2018-11-06T09:15:18.599Z,2000.00
2018-11-06T09:16:18.549Z,1896.00
2018-11-06T09:17:18.500Z,1852.00
2018-11-06T09:18:18.519Z,1836.00
2018-11-06T09:19:18.410Z,1792.00
2018-11-06T09:20:18.349Z,1780.00
2018-11-06T09:21:18.301Z,1744.00
2018-11-06T09:22:18.265Z,1772.00
2018-11-06T09:23:18.227Z,1776.00
2018-11-06T09:24:18.150Z,1764.00
2018-11-06T09:25:18.098Z,1712.00
2018-11-06T09:26:18.050Z,1664.00
2018-11-06T09:27:18.026Z,1608.00
2018-11-06T09:28:17.978Z,1584.00
2018-11-06T09:29:17.901Z,1580.00
2018-11-06T09:30:17.855Z,1524.00
2018-11-06T09:31:17.808Z,1476.00
2018-11-06T09:32:17.771Z,1476.00
2018-11-06T09:33:17.730Z,1512.00
2018-11-06T09:34:17.654Z,1608.00
2018-11-06T09:35:17.607Z,1632.00
2018-11-06T09:36:17.557Z,1632.00
2018-11-06T09:37:17.509Z,1608.00
2018-11-06T09:38:17.479Z,1572.00
2018-11-06T09:39:17.410Z,1552.00
2018-11-06T09:40:17.358Z,1492.00
2018-11-06T09:41:17.350Z,1520.00
2018-11-06T09:42:17.262Z,1476.00
2018-11-06T09:43:17.251Z,1448.00
2018-11-06T09:44:17.162Z,1376.00
2018-11-06T09:45:17.141Z,1412.00
2018-11-06T09:46:17.059Z,1476.00
2018-11-06T09:47:17.011Z,1452.00
2018-11-06T09:48:16.989Z,1436.00
2018-11-06T09:49:16.915Z,1476.00
2018-11-06T09:50:16.864Z,1532.00
2018-11-06T09:51:16.815Z,1668.00
2018-11-06T09:52:16.769Z,1756.00
2018-11-06T09:53:16.744Z,1784.00
2018-11-06T09:54:16.668Z,1720.00
2018-11-06T09:55:16.619Z,1684.00
2018-11-06T09:56:16.567Z,1540.00
2018-11-06T09:57:16.519Z,1428.00
2018-11-06T09:58:16.495Z,1516.00
2018-11-06T09:59:16.425Z,1572.00
2018-11-06T10:00:16.435Z,1632.00
2018-11-06T10:01:16.321Z,1752.00
2018-11-06T10:02:16.274Z,1848.00
2018-11-06T10:03:16.251Z,1940.00
2018-11-06T10:04:16.178Z,2076.00
2018-11-06T10:05:16.125Z,2172.00
2018-11-06T10:06:16.199Z,2324.00
2018-11-06T10:07:16.360Z,2452.00
2018-11-06T10:08:16.004Z,2484.00
2018-11-06T10:09:15.977Z,2528.00
2018-11-06T10:10:15.885Z,2564.00
2018-11-06T10:11:15.835Z,2592.00
2018-11-06T10:12:15.784Z,2676.00
2018-11-06T10:13:15.757Z,2756.00
2018-11-06T10:14:15.696Z,2800.00
2018-11-06T10:15:15.638Z,2820.00
2018-11-06T10:16:15.597Z,2784.00
2018-11-06T10:17:15.543Z,2760.00
2018-11-06T10:18:15.517Z,2744.00
2018-11-06T10:19:15.446Z,2792.00
2018-11-06T10:20:15.394Z,2788.00
2018-11-06T10:21:15.405Z,2888.00
2018-11-06T10:22:15.298Z,3036.00
2018-11-06T10:23:15.273Z,3192.00
2018-11-06T10:24:15.208Z,3412.00
2018-11-06T10:25:15.179Z,3544.00
2018-11-06T10:26:15.102Z,3628.00
2018-11-06T10:27:15.061Z,3572.00
2018-11-06T10:28:15.032Z,3492.00
2018-11-06T10:29:14.959Z,3440.00
2018-11-06T10:30:14.911Z,3360.00
2018-11-06T10:31:14.864Z,3348.00
2018-11-06T10:32:14.811Z,3276.00
2018-11-06T10:33:14.787Z,3300.00
2018-11-06T10:34:14.716Z,3380.00
2018-11-06T10:35:14.670Z,3456.00
2018-11-06T10:36:14.621Z,3620.00
2018-11-06T10:37:14.573Z,3664.00
2018-11-06T10:38:14.580Z,3720.00
2018-11-06T10:39:14.500Z,3732.00
2018-11-06T10:40:14.423Z,3760.00
2018-11-06T10:41:14.375Z,3716.00
2018-11-06T10:42:14.332Z,3652.00
2018-11-06T10:43:14.284Z,3624.00
2018-11-06T10:44:14.256Z,3608.00
2018-11-06T10:45:14.182Z,3636.00
2018-11-06T10:46:14.133Z,3684.00
2018-11-06T10:47:14.085Z,3768.00
2018-11-06T10:48:14.039Z,3724.00
2018-11-06T10:49:14.017Z,3684.00
2018-11-06T10:50:13.945Z,3664.00
2018-11-06T10:51:13.897Z,3636.00
2018-11-06T10:52:20.992Z,3696.00
2018-11-06T10:53:13.799Z,3756.00
2018-11-06T10:54:13.777Z,3800.00
2018-11-06T10:55:13.701Z,3856.00
2018-11-06T10:56:13.651Z,3968.00
2018-11-06T10:57:13.599Z,4072.00
2018-11-06T10:58:13.632Z,4132.00
2018-11-06T10:59:13.531Z,4008.00
2018-11-06T11:00:13.458Z,3924.00
2018-11-06T11:01:13.416Z,3840.00
2018-11-06T11:02:13.361Z,3816.00
2018-11-06T11:03:13.319Z,3856.00
2018-11-06T11:04:13.372Z,3844.00
2018-11-06T11:05:13.216Z,3912.00
2018-11-06T11:06:13.170Z,4032.00
2018-11-06T11:07:13.124Z,4084.00
2018-11-06T11:08:13.085Z,4020.00
2018-11-06T11:09:13.048Z,3876.00
2018-11-06T11:10:12.976Z,3656.00
2018-11-06T11:11:12.951Z,3360.00
2018-11-06T11:12:12.885Z,3072.00
2018-11-06T11:13:12.880Z,2864.00
2018-11-06T11:14:12.808Z,2748.00
2018-11-06T11:15:12.756Z,2760.00
2018-11-06T11:16:12.697Z,2784.00
2018-11-06T11:17:12.644Z,2744.00
2018-11-06T11:18:12.593Z,2692.00
2018-11-06T11:19:12.568Z,2620.00
2018-11-06T11:20:12.584Z,2512.00
2018-11-06T11:21:12.450Z,2392.00
2018-11-06T11:22:12.402Z,2288.00
2018-11-06T11:23:12.349Z,2212.00
2018-11-06T11:24:12.330Z,2208.00
2018-11-06T11:25:12.259Z,2236.00
2018-11-06T11:26:12.209Z,2284.00
2018-11-06T11:27:12.164Z,2308.00
2018-11-06T11:28:12.115Z,2312.00
2018-11-06T11:29:12.093Z,2300.00
2018-11-06T11:30:12.016Z,2296.00
2018-11-06T11:31:11.971Z,2288.00
2018-11-06T11:32:11.920Z,2292.00
2018-11-06T11:33:11.871Z,2312.00
2018-11-06T11:34:11.851Z,2308.00
2018-11-06T11:35:11.777Z,2320.00
2018-11-06T11:36:11.776Z,2332.00
2018-11-06T11:37:11.682Z,2360.00
2018-11-06T11:38:11.656Z,2404.00
2018-11-06T11:39:11.614Z,2444.00
2018-11-06T11:40:11.537Z,2456.00
2018-11-06T11:41:11.487Z,2452.00
2018-11-06T11:42:11.441Z,2480.00
2018-11-06T11:43:11.393Z,2496.00
2018-11-06T11:44:11.368Z,2484.00
2018-11-06T11:45:11.296Z,2440.00
2018-11-06T11:46:11.249Z,2388.00
2018-11-06T11:47:11.205Z,2344.00
2018-11-06T11:48:11.153Z,2296.00
2018-11-06T11:49:11.131Z,2272.00
2018-11-06T11:50:11.058Z,2284.00
2018-11-06T11:51:11.008Z,2348.00
2018-11-06T11:52:10.960Z,2404.00
2018-11-06T11:53:10.917Z,2444.00
2018-11-06T11:54:10.888Z,2484.00
2018-11-06T11:55:10.816Z,2500.00
2018-11-06T11:56:10.771Z,2484.00
2018-11-06T11:57:10.724Z,2444.00
2018-11-06T11:58:10.673Z,2392.00
2018-11-06T11:59:10.649Z,2316.00
2018-11-06T12:00:10.625Z,2220.00
2018-11-06T12:01:10.531Z,2156.00
2018-11-06T12:02:10.504Z,2132.00
2018-11-06T12:03:10.441Z,2156.00
2018-11-06T12:04:10.413Z,2164.00
2018-11-06T12:05:10.338Z,2176.00
2018-11-06T12:06:10.293Z,2196.00
2018-11-06T12:07:10.242Z,2224.00
2018-11-06T12:08:10.190Z,2256.00
2018-11-06T12:09:10.169Z,2296.00
2018-11-06T12:10:10.094Z,2276.00
2018-11-06T12:11:10.045Z,2260.00
2018-11-06T12:12:10.007Z,2248.00
2018-11-06T12:13:09.955Z,2220.00
2018-11-06T12:14:09.951Z,2208.00
2018-11-06T12:15:09.870Z,2224.00
2018-11-06T12:16:09.809Z,2244.00
2018-11-06T12:17:09.762Z,2264.00
2018-11-06T12:18:09.766Z,2276.00
2018-11-06T12:19:09.667Z,2328.00
2018-11-06T12:20:09.647Z,2392.00
2018-11-06T12:21:09.568Z,2440.00
2018-11-06T12:22:09.521Z,2460.00
2018-11-06T12:23:09.489Z,2472.00
2018-11-06T12:24:09.434Z,2504.00
2018-11-06T12:25:09.605Z,2500.00
2018-11-06T12:26:09.327Z,2528.00
2018-11-06T12:27:09.279Z,2560.00
2018-11-06T12:28:09.236Z,2536.00
2018-11-06T12:29:09.186Z,2472.00
2018-11-06T12:30:09.161Z,2424.00
2018-11-06T12:31:09.093Z,2408.00
2018-11-06T12:32:09.041Z,2384.00
2018-11-06T12:33:09.027Z,2340.00
2018-11-06T12:34:08.941Z,2320.00
2018-11-06T12:35:08.925Z,2292.00
2018-11-06T12:36:08.861Z,2276.00
2018-11-06T12:37:08.868Z,2300.00
2018-11-06T12:38:08.756Z,2336.00
2018-11-06T12:39:08.704Z,2348.00
2018-11-06T12:40:08.679Z,2360.00
2018-11-06T12:41:08.610Z,2356.00
2018-11-06T12:42:08.570Z,2380.00